createdAt,value
2022-11-03T00:00:10.032Z,22.50
2022-11-03T00:02:41.347Z,24.48
2022-11-03T00:05:29.616Z,29.27
2022-11-03T00:07:57.988Z,29.15
2022-11-03T00:10:25.942Z,26.83
2022-11-03T00:12:54.527Z,33.67
2022-11-03T00:15:23.236Z,29.38
2022-11-03T00:17:51.195Z,33.30
2022-11-03T00:20:20.281Z,40.03
2022-11-03T00:22:48.337Z,39.05
2022-11-03T00:25:16.470Z,35.25
2022-11-03T00:27:44.381Z,33.90
2022-11-03T00:30:13.233Z,22.85
2022-11-03T00:32:41.052Z,25.58
2022-11-03T00:35:09.162Z,21.58
2022-11-03T00:37:37.073Z,23.10
2022-11-03T00:40:05.667Z,23.92
2022-11-03T00:42:35.243Z,22.67
2022-11-03T00:45:03.549Z,26.00
2022-11-03T00:47:31.497Z,24.58
2022-11-03T00:49:59.274Z,23.85
2022-11-03T00:52:27.392Z,27.00
2022-11-03T00:54:55.598Z,24.75
2022-11-03T00:57:23.497Z,25.30
2022-11-03T00:59:51.417Z,23.55
2022-11-03T01:02:19.430Z,24.48
2022-11-03T01:05:06.596Z,26.50
2022-11-03T01:07:35.144Z,26.05
2022-11-03T01:10:04.314Z,20.02
2022-11-03T01:12:32.401Z,21.73
2022-11-03T01:15:00.370Z,27.60
2022-11-03T01:17:29.258Z,31.45
2022-11-03T01:19:57.137Z,29.02
2022-11-03T01:22:25.182Z,30.00
2022-11-03T01:24:53.079Z,29.15
2022-11-03T01:27:23.208Z,31.23
2022-11-03T01:29:51.300Z,28.05
2022-11-03T01:32:19.189Z,22.33
2022-11-03T01:34:47.107Z,31.23
2022-11-03T01:37:15.285Z,33.63
2022-11-03T01:39:43.115Z,26.73
2022-11-03T01:42:14.993Z,31.25
2022-11-03T01:44:49.360Z,28.95
2022-11-03T01:47:27.943Z,28.08
2022-11-03T01:50:08.711Z,26.77
2022-11-03T01:52:53.949Z,34.83
2022-11-03T01:55:30.497Z,30.35
2022-11-03T01:58:25.585Z,21.48
2022-11-03T02:00:59.486Z,23.35
2022-11-03T02:03:32.947Z,19.55
2022-11-03T02:06:02.920Z,17.48
2022-11-03T02:08:54.030Z,24.23
2022-11-03T02:11:41.057Z,21.27
2022-11-03T02:14:16.211Z,25.20
2022-11-03T02:16:54.848Z,33.78
2022-11-03T02:19:46.271Z,41.28
2022-11-03T02:22:35.104Z,40.28
2022-11-03T02:25:52.688Z,30.33
2022-11-03T02:28:24.909Z,39.20
2022-11-03T02:31:21.465Z,42.00
2022-11-03T02:34:30.731Z,34.10
2022-11-03T02:37:25.909Z,31.10
2022-11-03T02:40:17.620Z,22.77
2022-11-03T02:42:52.270Z,24.63
2022-11-03T02:45:25.211Z,28.05
2022-11-03T02:47:59.136Z,32.08
2022-11-03T02:50:29.721Z,37.80
2022-11-03T02:52:58.758Z,41.78
2022-11-03T02:55:51.847Z,61.05
2022-11-03T02:59:05.109Z,68.03
2022-11-03T03:01:48.902Z,83.03
2022-11-03T03:04:40.163Z,76.63
2022-11-03T03:07:15.928Z,72.20
2022-11-03T03:10:22.034Z,80.30
2022-11-03T03:12:54.319Z,85.68
2022-11-03T03:15:36.827Z,71.90
2022-11-03T03:18:24.779Z,76.55
2022-11-03T03:20:59.765Z,69.07
2022-11-03T03:23:36.000Z,64.70
2022-11-03T03:26:10.981Z,69.65
2022-11-03T03:28:56.097Z,62.88
2022-11-03T03:31:28.022Z,53.42
2022-11-03T03:34:04.654Z,36.92
2022-11-03T03:36:40.650Z,30.88
2022-11-03T03:39:13.966Z,28.00
2022-11-03T03:41:43.677Z,38.53
2022-11-03T03:44:14.204Z,40.88
2022-11-03T03:46:52.188Z,51.75
2022-11-03T03:49:20.786Z,40.42
2022-11-03T03:51:49.994Z,35.10
2022-11-03T03:54:17.969Z,28.30
2022-11-03T03:57:00.301Z,26.63
2022-11-03T03:59:28.285Z,23.33
2022-11-03T04:01:56.541Z,19.95
2022-11-03T04:04:24.546Z,20.02
2022-11-03T04:07:12.359Z,24.05
2022-11-03T04:09:40.475Z,17.30
2022-11-03T04:12:28.167Z,21.70
2022-11-03T04:15:15.730Z,21.73
2022-11-03T04:18:07.849Z,21.25
2022-11-03T04:20:54.993Z,20.10
2022-11-03T04:23:23.141Z,19.88
2022-11-03T04:25:56.673Z,22.48
2022-11-03T04:28:27.373Z,17.85
2022-11-03T04:30:59.678Z,22.20
2022-11-03T04:33:29.745Z,21.45
2022-11-03T04:35:59.814Z,16.17
2022-11-03T04:38:29.478Z,21.35
2022-11-03T04:40:59.304Z,18.95
2022-11-03T04:43:35.951Z,18.25
2022-11-03T04:46:04.359Z,19.33
2022-11-03T04:48:34.505Z,19.92
2022-11-03T04:51:18.517Z,20.17
2022-11-03T04:53:56.467Z,14.95
2022-11-03T04:56:25.977Z,24.02
2022-11-03T04:58:54.704Z,19.58
2022-11-03T05:01:24.842Z,19.98
2022-11-03T05:03:55.087Z,21.88
2022-11-03T05:06:28.169Z,19.10
2022-11-03T05:09:07.993Z,19.00
2022-11-03T05:11:42.718Z,17.92
2022-11-03T05:14:32.425Z,18.42
2022-11-03T05:17:03.058Z,22.35
2022-11-03T05:19:41.793Z,18.65
2022-11-03T05:22:20.869Z,29.08
2022-11-03T05:24:56.096Z,27.13
2022-11-03T05:27:25.118Z,26.63
2022-11-03T05:29:59.592Z,37.25
2022-11-03T05:32:33.189Z,27.40
2022-11-03T05:35:01.402Z,22.33
2022-11-03T05:37:35.630Z,29.33
2022-11-03T05:40:27.238Z,16.58
2022-11-03T05:43:01.199Z,17.02
2022-11-03T05:45:37.569Z,21.58
2022-11-03T05:48:37.602Z,17.10
2022-11-03T05:51:38.565Z,30.15
2022-11-03T05:54:19.962Z,31.10
2022-11-03T05:56:51.363Z,52.85
2022-11-03T05:59:28.367Z,35.47
2022-11-03T06:02:00.817Z,19.83
2022-11-03T06:04:37.538Z,14.70
2022-11-03T06:07:31.281Z,12.13
2022-11-03T06:10:00.379Z,15.80
2022-11-03T06:12:30.695Z,13.95
2022-11-03T06:14:58.663Z,14.30
2022-11-03T06:17:28.819Z,15.48
2022-11-03T06:19:59.564Z,13.75
2022-11-03T06:22:38.377Z,12.05
2022-11-03T06:25:33.307Z,12.10
2022-11-03T06:28:05.501Z,16.63
2022-11-03T06:30:39.361Z,12.95
2022-11-03T06:33:27.896Z,14.80
2022-11-03T06:36:11.171Z,12.02
2022-11-03T06:38:40.060Z,13.60
2022-11-03T06:41:28.116Z,14.90
2022-11-03T06:43:58.531Z,12.85
2022-11-03T06:46:30.548Z,13.35
2022-11-03T06:49:01.419Z,14.23
2022-11-03T06:51:31.208Z,18.40
2022-11-03T06:54:01.135Z,13.93
2022-11-03T06:56:35.367Z,11.43
2022-11-03T06:59:03.605Z,14.25
2022-11-03T07:01:36.221Z,15.52
2022-11-03T07:04:23.948Z,12.88
2022-11-03T07:06:53.765Z,13.32
2022-11-03T07:09:29.060Z,13.07
2022-11-03T07:12:00.593Z,12.35
2022-11-03T07:14:31.831Z,13.68
2022-11-03T07:17:05.030Z,14.38
2022-11-03T07:19:38.089Z,13.15
2022-11-03T07:22:27.203Z,10.93
2022-11-03T07:25:00.717Z,13.88
2022-11-03T07:27:39.200Z,13.25
2022-11-03T07:30:24.173Z,16.23
2022-11-03T07:33:26.994Z,16.08
2022-11-03T07:36:15.037Z,13.70
2022-11-03T07:38:48.144Z,14.10
2022-11-03T07:41:29.553Z,12.38
2022-11-03T07:44:02.919Z,17.73
2022-11-03T07:46:30.938Z,18.23
2022-11-03T07:49:02.946Z,10.63
2022-11-03T07:51:31.975Z,15.48
2022-11-03T07:54:30.238Z,11.48
2022-11-03T07:57:01.288Z,17.58
2022-11-03T07:59:35.492Z,11.98
2022-11-03T08:02:27.355Z,16.10
2022-11-03T08:04:55.892Z,13.13
2022-11-03T08:07:23.839Z,15.07
2022-11-03T08:09:52.787Z,12.00
2022-11-03T08:12:21.301Z,9.90
2022-11-03T08:14:49.564Z,12.25
2022-11-03T08:17:17.642Z,11.73
2022-11-03T08:19:45.721Z,13.45
2022-11-03T08:22:14.871Z,12.38
2022-11-03T08:24:43.048Z,13.40
2022-11-03T08:27:11.558Z,11.88
2022-11-03T08:29:39.586Z,14.18
2022-11-03T08:32:08.044Z,10.80
2022-11-03T08:34:36.055Z,10.38
2022-11-03T08:37:04.091Z,11.98
2022-11-03T08:39:31.978Z,19.75
2022-11-03T08:42:01.224Z,15.82
2022-11-03T08:44:29.200Z,14.55
2022-11-03T08:46:57.073Z,12.15
2022-11-03T08:49:25.313Z,10.50
2022-11-03T08:51:53.320Z,12.05
2022-11-03T08:54:21.189Z,9.75
2022-11-03T08:56:49.867Z,12.07
2022-11-03T08:59:18.382Z,9.73
2022-11-03T09:01:46.844Z,10.20
2022-11-03T09:04:15.759Z,9.32
2022-11-03T09:06:44.054Z,10.43
2022-11-03T09:11:59.920Z,17.77
2022-11-03T09:14:27.794Z,11.23
2022-11-03T09:16:55.933Z,8.32
2022-11-03T09:19:25.058Z,9.35
2022-11-03T09:21:53.745Z,13.77
2022-11-03T09:24:21.793Z,18.90
2022-11-03T09:26:49.840Z,14.38
2022-11-03T09:29:17.904Z,18.27
2022-11-03T09:31:45.804Z,14.85
2022-11-03T09:34:14.922Z,12.20
2022-11-03T09:36:42.934Z,8.35
2022-11-03T09:39:10.856Z,10.18
2022-11-03T09:41:57.936Z,13.85
2022-11-03T09:44:27.607Z,10.23
2022-11-03T09:46:58.456Z,10.07
2022-11-03T09:49:31.104Z,9.88
2022-11-03T09:52:02.099Z,10.00
2022-11-03T09:54:31.186Z,7.68
2022-11-03T09:57:11.772Z,11.90
2022-11-03T09:59:49.077Z,10.38
2022-11-03T10:02:30.705Z,11.38
2022-11-03T10:07:31.310Z,9.27
2022-11-03T10:10:01.621Z,12.10
2022-11-03T10:12:35.898Z,7.20
2022-11-03T10:15:04.167Z,9.55
2022-11-03T10:17:32.297Z,10.77
2022-11-03T10:20:02.218Z,10.00
2022-11-03T10:22:30.461Z,7.38
2022-11-03T10:25:38.860Z,12.25
2022-11-03T10:28:27.134Z,11.88
2022-11-03T10:31:13.704Z,8.35
2022-11-03T10:33:53.170Z,7.35
2022-11-03T10:36:20.959Z,10.20
2022-11-03T10:38:49.288Z,7.15
2022-11-03T10:41:20.773Z,8.80
2022-11-03T10:44:19.702Z,5.40
2022-11-03T10:47:02.479Z,8.07
2022-11-03T10:49:37.716Z,6.03
2022-11-03T10:52:26.546Z,7.22
2022-11-03T10:54:58.357Z,11.65
2022-11-03T10:57:27.680Z,9.70
2022-11-03T10:59:56.107Z,8.50
2022-11-03T11:02:32.293Z,11.05
2022-11-03T11:05:09.066Z,8.13
2022-11-03T11:07:41.517Z,11.98
2022-11-03T11:10:28.456Z,7.60
2022-11-03T11:13:19.003Z,6.53
2022-11-03T11:15:56.064Z,6.05
2022-11-03T11:18:29.753Z,8.43
2022-11-03T11:21:22.562Z,7.00
2022-11-03T11:23:52.832Z,12.75
2022-11-03T11:26:33.635Z,10.43
2022-11-03T11:29:11.194Z,6.75
2022-11-03T11:31:45.229Z,7.97
2022-11-03T11:34:18.841Z,7.45
2022-11-03T11:36:55.750Z,9.45
2022-11-03T11:39:26.282Z,9.23
2022-11-03T11:42:21.077Z,8.85
2022-11-03T11:44:57.162Z,7.25
2022-11-03T11:47:45.502Z,4.50
2022-11-03T11:50:25.490Z,7.70
2022-11-03T11:53:08.164Z,12.80
2022-11-03T11:55:51.123Z,9.70
2022-11-03T11:58:36.579Z,8.73
2022-11-03T12:01:20.978Z,10.27
2022-11-03T12:03:50.079Z,7.43
2022-11-03T12:06:18.146Z,7.20
2022-11-03T12:08:46.067Z,8.93
2022-11-03T12:11:14.256Z,7.65
2022-11-03T12:13:53.985Z,6.20
2022-11-03T12:16:28.692Z,4.93
2022-11-03T12:18:58.944Z,10.90
2022-11-03T12:21:48.935Z,11.60
2022-11-03T12:24:32.324Z,5.60
2022-11-03T12:27:01.688Z,8.32
2022-11-03T12:29:30.269Z,8.90
2022-11-03T12:31:58.128Z,11.13
2022-11-03T12:34:26.321Z,8.60
2022-11-03T12:36:56.392Z,8.18
2022-11-03T12:39:25.246Z,9.50
2022-11-03T12:41:53.921Z,9.85
2022-11-03T12:44:21.964Z,5.35
2022-11-03T12:46:49.873Z,8.05
2022-11-03T12:49:17.920Z,10.38
2022-11-03T12:51:46.014Z,8.80
2022-11-03T12:54:13.924Z,13.35
2022-11-03T12:56:41.974Z,11.90
2022-11-03T12:59:10.239Z,10.30
2022-11-03T13:01:39.852Z,6.95
2022-11-03T13:04:08.554Z,8.25
2022-11-03T13:06:36.458Z,10.52
2022-11-03T13:09:04.436Z,6.70
2022-11-03T13:11:51.482Z,7.35
2022-11-03T13:14:19.538Z,10.55
2022-11-03T13:16:47.638Z,7.28
2022-11-03T13:19:15.665Z,8.05
2022-11-03T13:21:43.759Z,10.13
2022-11-03T13:24:11.786Z,10.25
2022-11-03T13:26:39.904Z,9.65
2022-11-03T13:29:08.229Z,8.63
2022-11-03T13:31:37.045Z,9.48
2022-11-03T13:34:04.978Z,12.60
2022-11-03T13:36:32.857Z,10.10
2022-11-03T13:39:00.932Z,11.30
2022-11-03T13:41:28.738Z,11.63
2022-11-03T13:43:56.580Z,10.27
2022-11-03T13:46:24.733Z,6.45
2022-11-03T13:51:40.586Z,10.90
2022-11-03T13:59:45.965Z,9.07
2022-11-03T14:05:04.385Z,9.90
2022-11-03T14:10:03.872Z,8.05
2022-11-03T14:12:32.432Z,9.35
2022-11-03T14:15:09.552Z,7.75
2022-11-03T14:17:40.472Z,9.45
2022-11-03T14:20:12.366Z,8.05
2022-11-03T14:22:40.885Z,9.63
2022-11-03T14:25:09.812Z,8.40
2022-11-03T14:27:37.789Z,12.05
2022-11-03T14:30:06.907Z,11.82
2022-11-03T14:32:35.150Z,10.23
2022-11-03T14:35:03.411Z,8.68
2022-11-03T14:37:31.581Z,10.40
2022-11-03T14:39:59.639Z,10.35
2022-11-03T14:42:27.569Z,11.70
2022-11-03T14:44:55.812Z,12.02
2022-11-03T14:47:25.680Z,9.98
2022-11-03T14:49:53.640Z,10.38
2022-11-03T14:52:21.443Z,10.60
2022-11-03T14:54:50.232Z,10.05
2022-11-03T14:57:18.062Z,15.18
2022-11-03T14:59:50.540Z,10.80
2022-11-03T15:02:21.211Z,12.77
2022-11-03T15:04:49.324Z,19.35
2022-11-03T15:07:17.264Z,11.35
2022-11-03T15:09:45.485Z,12.43
2022-11-03T15:12:13.377Z,14.70
2022-11-03T15:14:41.280Z,17.58
2022-11-03T15:17:09.495Z,13.07
2022-11-03T15:19:37.491Z,13.02
2022-11-03T15:22:05.520Z,12.57
2022-11-03T15:27:23.047Z,17.42
2022-11-03T15:29:51.183Z,20.67
2022-11-03T15:32:19.080Z,25.27
2022-11-03T15:34:46.998Z,25.80
2022-11-03T15:37:15.933Z,26.88
2022-11-03T15:39:43.930Z,22.60
2022-11-03T15:42:11.851Z,16.60
2022-11-03T15:44:40.912Z,20.10
2022-11-03T15:47:08.973Z,15.90
2022-11-03T15:49:37.155Z,15.15
2022-11-03T15:52:05.349Z,18.48
2022-11-03T15:54:33.998Z,20.13
2022-11-03T15:57:04.741Z,26.30
2022-11-03T15:59:32.736Z,35.25
2022-11-03T16:02:08.656Z,59.70
2022-11-03T16:04:48.817Z,77.05
2022-11-03T16:07:16.776Z,135.02
2022-11-03T16:09:44.726Z,144.23
2022-11-03T16:12:12.752Z,94.03
2022-11-03T16:14:43.931Z,114.80
2022-11-03T16:17:12.390Z,144.45
2022-11-03T16:19:40.316Z,175.30
2022-11-03T16:22:08.740Z,186.63
2022-11-03T16:24:37.057Z,183.43
2022-11-03T16:27:05.025Z,164.77
2022-11-03T16:29:33.180Z,158.82
2022-11-03T16:32:01.639Z,157.07
2022-11-03T16:34:30.304Z,155.27
2022-11-03T16:36:58.731Z,131.90
2022-11-03T16:39:27.129Z,127.20
2022-11-03T16:41:55.290Z,116.43
2022-11-03T16:44:24.702Z,106.40
2022-11-03T16:46:52.762Z,88.03
2022-11-03T16:49:20.810Z,83.13
2022-11-03T16:51:48.778Z,113.75
2022-11-03T16:54:17.032Z,157.23
2022-11-03T16:56:45.023Z,119.18
2022-11-03T16:59:13.148Z,106.05
2022-11-03T17:01:41.567Z,123.88
2022-11-03T17:04:09.602Z,123.82
2022-11-03T17:06:37.757Z,126.63
2022-11-03T17:09:05.861Z,119.80
2022-11-03T17:11:36.900Z,135.18
2022-11-03T17:14:13.806Z,137.25
2022-11-03T17:16:45.513Z,147.75
2022-11-03T17:19:16.677Z,155.88
2022-11-03T17:21:44.708Z,197.35
2022-11-03T17:24:13.533Z,178.95
2022-11-03T17:27:07.984Z,169.52
2022-11-03T17:29:42.916Z,175.02
2022-11-03T17:32:25.225Z,164.38
2022-11-03T17:34:54.625Z,151.63
2022-11-03T17:37:24.566Z,141.23
2022-11-03T17:39:53.114Z,133.25
2022-11-03T17:42:26.286Z,112.03
2022-11-03T17:44:57.858Z,115.20
2022-11-03T17:47:25.994Z,107.05
2022-11-03T17:49:53.936Z,141.40
2022-11-03T17:52:30.718Z,158.05
2022-11-03T17:55:01.970Z,146.65
2022-11-03T17:57:30.627Z,173.40
2022-11-03T18:00:01.582Z,161.18
2022-11-03T18:02:32.533Z,129.52
2022-11-03T18:05:31.552Z,153.50
2022-11-03T18:08:02.389Z,130.93
2022-11-03T18:10:38.085Z,128.07
2022-11-03T18:13:34.489Z,169.32
2022-11-03T18:16:12.590Z,269.55
2022-11-03T18:18:44.084Z,182.70
2022-11-03T18:21:18.925Z,125.72
2022-11-03T18:23:47.125Z,557.22
2022-11-03T18:26:27.431Z,160.77
2022-11-03T18:28:55.660Z,128.07
2022-11-03T18:31:43.219Z,151.48
2022-11-03T18:34:23.053Z,138.00
2022-11-03T18:36:52.995Z,107.35
2022-11-03T18:39:26.587Z,119.95
2022-11-03T18:41:55.849Z,178.45
2022-11-03T18:44:30.981Z,134.80
2022-11-03T18:46:59.157Z,118.82
2022-11-03T18:49:27.743Z,130.52
2022-11-03T18:52:03.946Z,121.53
2022-11-03T18:54:35.333Z,125.38
2022-11-03T18:57:04.533Z,120.35
2022-11-03T18:59:37.846Z,131.93
2022-11-03T19:02:24.168Z,111.80
2022-11-03T19:04:52.572Z,128.60
2022-11-03T19:07:29.246Z,163.63
2022-11-03T19:09:58.314Z,146.57
2022-11-03T19:12:26.387Z,149.13
2022-11-03T19:14:55.116Z,146.45
2022-11-03T19:17:25.607Z,146.85
2022-11-03T19:19:54.035Z,141.68
2022-11-03T19:22:23.706Z,152.35
2022-11-03T19:24:52.418Z,140.18
2022-11-03T19:27:26.285Z,132.63
2022-11-03T19:29:56.027Z,176.88
2022-11-03T19:32:31.787Z,176.35
2022-11-03T19:35:32.991Z,145.50
2022-11-03T19:38:13.833Z,163.65
2022-11-03T19:41:02.678Z,143.70
2022-11-03T19:43:34.777Z,144.93
2022-11-03T19:46:04.929Z,132.70
2022-11-03T19:48:34.531Z,150.13
2022-11-03T19:51:04.974Z,140.63
2022-11-03T19:53:33.381Z,133.93
2022-11-03T19:56:01.620Z,107.97
2022-11-03T19:58:30.323Z,120.30
2022-11-03T20:01:00.044Z,110.88
2022-11-03T20:03:30.095Z,105.55
2022-11-03T20:05:58.893Z,96.43
2022-11-03T20:08:31.645Z,99.18
2022-11-03T20:11:00.689Z,100.63
2022-11-03T20:13:39.485Z,113.75
2022-11-03T20:16:16.463Z,118.38
2022-11-03T20:18:44.783Z,94.53
2022-11-03T20:21:18.023Z,101.78
2022-11-03T20:23:48.703Z,98.22
2022-11-03T20:26:24.231Z,109.22
2022-11-03T20:28:54.633Z,95.80
2022-11-03T20:31:23.292Z,102.95
2022-11-03T20:33:51.540Z,70.53
2022-11-03T20:36:20.887Z,69.60
2022-11-03T20:38:59.726Z,67.30
2022-11-03T20:41:30.478Z,76.53
2022-11-03T20:43:59.830Z,80.75
2022-11-03T20:46:32.882Z,71.03
2022-11-03T20:49:02.592Z,65.97
2022-11-03T20:51:35.266Z,74.30
2022-11-03T20:54:12.652Z,72.80
2022-11-03T20:56:41.548Z,74.80
2022-11-03T20:59:18.052Z,80.55
2022-11-03T21:01:47.139Z,65.00
2022-11-03T21:04:18.770Z,61.75
2022-11-03T21:06:47.324Z,85.93
2022-11-03T21:09:20.327Z,70.80
2022-11-03T21:12:04.154Z,66.95
2022-11-03T21:14:33.468Z,67.93
2022-11-03T21:17:20.016Z,71.03
2022-11-03T21:20:02.324Z,67.20
2022-11-03T21:22:52.505Z,65.43
2022-11-03T21:25:24.448Z,65.90
2022-11-03T21:30:23.408Z,68.60
2022-11-03T21:32:51.888Z,64.35
2022-11-03T21:35:22.257Z,81.18
2022-11-03T21:37:50.660Z,71.57
2022-11-03T21:40:18.782Z,67.93
2022-11-03T21:43:05.523Z,69.85
2022-11-03T21:45:33.592Z,67.03
2022-11-03T21:48:21.203Z,61.28
2022-11-03T21:50:49.945Z,66.20
2022-11-03T21:53:18.381Z,67.60
2022-11-03T21:55:50.226Z,66.22
2022-11-03T21:58:18.308Z,69.65
2022-11-03T22:00:47.443Z,59.03
2022-11-03T22:03:17.003Z,54.50
2022-11-03T22:05:45.529Z,55.95
2022-11-03T22:08:13.677Z,45.63
2022-11-03T22:10:42.109Z,38.72
2022-11-03T22:13:11.045Z,49.78
2022-11-03T22:15:57.802Z,39.17
2022-11-03T22:18:26.537Z,47.33
2022-11-03T22:21:16.077Z,40.85
2022-11-03T22:24:13.472Z,52.70
2022-11-03T22:26:56.847Z,46.60
2022-11-03T22:29:43.423Z,43.88
2022-11-03T22:32:15.264Z,54.65
2022-11-03T22:35:02.071Z,49.80
2022-11-03T22:40:16.614Z,42.13
2022-11-03T22:43:03.692Z,45.45
2022-11-03T22:45:50.582Z,49.42
2022-11-03T22:48:23.623Z,49.05
2022-11-03T22:51:09.076Z,49.53
2022-11-03T22:53:56.695Z,43.40
2022-11-03T22:56:27.360Z,47.05
2022-11-03T22:58:55.686Z,52.67
2022-11-03T23:01:29.450Z,47.13
2022-11-03T23:03:58.165Z,46.47
2022-11-03T23:06:29.395Z,49.85
2022-11-03T23:08:57.675Z,42.50
2022-11-03T23:11:31.025Z,39.38
2022-11-03T23:14:01.023Z,42.88
2022-11-03T23:16:55.418Z,35.85
2022-11-03T23:19:42.011Z,49.60
2022-11-03T23:22:09.841Z,42.00
2022-11-03T23:24:56.602Z,39.85
2022-11-03T23:27:24.595Z,39.97
2022-11-03T23:29:52.610Z,44.92
2022-11-03T23:32:20.781Z,36.60
2022-11-03T23:34:48.651Z,37.38
2022-11-03T23:37:16.632Z,38.75
2022-11-03T23:39:44.904Z,47.42
2022-11-03T23:42:14.285Z,45.38
2022-11-03T23:45:00.980Z,38.25
2022-11-03T23:47:47.413Z,42.10
2022-11-03T23:50:15.503Z,46.33
2022-11-03T23:52:43.378Z,42.92
2022-11-03T23:55:11.155Z,42.40
2022-11-03T23:58:00.686Z,40.50
